createdAt,value
2023-04-21T00:01:30.068Z,8.25
2023-04-21T00:04:18.026Z,8.20
2023-04-21T00:07:04.708Z,8.15
2023-04-21T00:09:51.462Z,8.10
2023-04-21T00:12:38.584Z,8.05
2023-04-21T00:15:25.599Z,8.01
2023-04-21T00:18:13.527Z,7.99
2023-04-21T00:20:59.997Z,7.97
2023-04-21T00:23:47.452Z,7.97
2023-04-21T00:26:34.038Z,7.96
2023-04-21T00:29:20.888Z,7.94
2023-04-21T00:32:10.074Z,7.96
2023-04-21T00:34:56.670Z,7.94
2023-04-21T00:37:43.256Z,7.91
2023-04-21T00:40:31.473Z,7.88
2023-04-21T00:43:18.188Z,7.85
2023-04-21T00:46:04.830Z,7.81
2023-04-21T00:48:51.169Z,7.78
2023-04-21T00:51:37.912Z,7.75
2023-04-21T00:54:26.105Z,7.72
2023-04-21T00:57:13.759Z,7.67
2023-04-21T01:00:00.270Z,7.64
2023-04-21T01:02:46.788Z,7.61
2023-04-21T01:05:35.040Z,7.60
2023-04-21T01:08:22.169Z,7.59
2023-04-21T01:11:11.115Z,7.59
2023-04-21T01:13:59.050Z,7.58
2023-04-21T01:16:46.734Z,7.58
2023-04-21T01:19:35.822Z,7.55
2023-04-21T01:22:22.247Z,7.54
2023-04-21T01:25:09.607Z,7.52
2023-04-21T01:27:56.268Z,7.49
2023-04-21T01:30:42.897Z,7.45
2023-04-21T01:33:29.828Z,7.38
2023-04-21T01:36:17.659Z,7.29
2023-04-21T01:39:04.846Z,7.23
2023-04-21T01:41:51.516Z,7.19
2023-04-21T01:44:38.824Z,7.07
2023-04-21T01:47:25.544Z,7.03
2023-04-21T01:50:12.365Z,6.96
2023-04-21T01:53:01.350Z,6.94
2023-04-21T01:55:48.281Z,6.89
2023-04-21T01:58:34.567Z,6.83
2023-04-21T02:01:22.034Z,6.79
2023-04-21T02:04:08.928Z,6.74
2023-04-21T02:06:55.705Z,6.71
2023-04-21T02:09:42.710Z,6.66
2023-04-21T02:12:29.186Z,6.63
2023-04-21T02:15:15.701Z,6.60
2023-04-21T02:18:02.456Z,6.57
2023-04-21T02:20:49.182Z,6.53
2023-04-21T02:23:35.702Z,6.46
2023-04-21T02:26:22.487Z,6.48
2023-04-21T02:29:09.058Z,6.44
2023-04-21T02:32:05.346Z,6.44
2023-04-21T02:35:00.723Z,6.44
2023-04-21T02:37:47.591Z,6.44
2023-04-21T02:40:34.913Z,6.43
2023-04-21T02:43:21.137Z,6.43
2023-04-21T02:46:09.221Z,6.36
2023-04-21T02:48:56.008Z,6.33
2023-04-21T02:51:42.456Z,6.27
2023-04-21T02:54:29.159Z,6.22
2023-04-21T02:57:15.961Z,6.18
2023-04-21T03:00:02.385Z,6.13
2023-04-21T03:02:48.806Z,6.06
2023-04-21T03:05:36.537Z,5.99
2023-04-21T03:08:23.412Z,5.94
2023-04-21T03:11:09.598Z,5.93
2023-04-21T03:13:56.298Z,5.92
2023-04-21T03:16:42.841Z,5.92
2023-04-21T03:19:29.923Z,5.90
2023-04-21T03:22:16.285Z,5.84
2023-04-21T03:25:02.918Z,5.82
2023-04-21T03:27:50.634Z,5.79
2023-04-21T03:30:37.553Z,5.76
2023-04-21T03:33:23.813Z,5.71
2023-04-21T03:36:11.013Z,5.65
2023-04-21T03:39:03.343Z,5.60
2023-04-21T03:41:59.440Z,5.57
2023-04-21T03:44:48.167Z,5.55
2023-04-21T03:47:35.234Z,5.53
2023-04-21T03:50:21.766Z,5.51
2023-04-21T03:53:08.033Z,5.47
2023-04-21T03:55:54.619Z,5.52
2023-04-21T03:58:41.752Z,5.52
2023-04-21T04:01:28.040Z,5.53
2023-04-21T04:04:14.822Z,5.54
2023-04-21T04:07:01.616Z,5.54
2023-04-21T04:09:47.954Z,5.55
2023-04-21T04:12:34.537Z,5.56
2023-04-21T04:15:21.388Z,5.58
2023-04-21T04:18:08.209Z,5.60
2023-04-21T04:20:54.688Z,5.65
2023-04-21T04:23:41.240Z,5.67
2023-04-21T04:26:28.522Z,5.69
2023-04-21T04:29:16.321Z,5.72
2023-04-21T04:32:04.209Z,5.75
2023-04-21T04:34:52.453Z,5.82
2023-04-21T04:37:39.646Z,5.89
2023-04-21T04:40:26.022Z,5.93
2023-04-21T04:43:12.446Z,5.99
2023-04-21T04:45:59.855Z,6.08
2023-04-21T04:48:46.690Z,6.20
2023-04-21T04:51:33.728Z,6.27
2023-04-21T04:54:20.709Z,6.39
2023-04-21T04:57:07.472Z,6.47
2023-04-21T04:59:57.049Z,6.64
2023-04-21T05:02:43.878Z,6.77
2023-04-21T05:05:30.757Z,6.87
2023-04-21T05:08:18.115Z,6.97
2023-04-21T05:11:04.934Z,7.05
2023-04-21T05:13:51.202Z,7.18
2023-04-21T05:16:37.925Z,7.29
2023-04-21T05:19:24.253Z,7.43
2023-04-21T05:22:10.951Z,7.53
2023-04-21T05:24:57.405Z,7.58
2023-04-21T05:27:44.253Z,7.77
2023-04-21T05:30:30.793Z,7.90
2023-04-21T05:33:19.756Z,8.02
2023-04-21T05:36:10.151Z,8.13
2023-04-21T05:38:56.636Z,8.25
2023-04-21T05:41:43.067Z,8.39
2023-04-21T05:44:29.538Z,8.53
2023-04-21T05:47:16.273Z,8.74
2023-04-21T05:50:03.061Z,8.93
2023-04-21T05:52:49.583Z,9.06
2023-04-21T05:55:37.298Z,9.25
2023-04-21T05:58:23.520Z,9.42
2023-04-21T06:01:10.178Z,9.56
2023-04-21T06:03:56.871Z,9.71
2023-04-21T06:06:44.370Z,9.85
2023-04-21T06:09:30.916Z,10.00
2023-04-21T06:12:17.692Z,10.15
2023-04-21T06:15:05.006Z,10.31
2023-04-21T06:17:57.657Z,10.45
2023-04-21T06:20:51.731Z,10.59
2023-04-21T06:23:38.101Z,10.72
2023-04-21T06:26:24.631Z,10.86
2023-04-21T06:29:11.105Z,10.99
2023-04-21T06:31:57.624Z,11.13
2023-04-21T06:34:44.149Z,11.28
2023-04-21T06:37:31.044Z,11.45
2023-04-21T06:40:17.762Z,11.62
2023-04-21T06:43:04.751Z,11.80
2023-04-21T06:45:51.418Z,11.90
2023-04-21T06:48:37.912Z,12.06
2023-04-21T06:51:24.383Z,12.23
2023-04-21T06:54:10.812Z,12.39
2023-04-21T06:56:57.418Z,12.55
2023-04-21T06:59:44.180Z,12.69
2023-04-21T07:02:31.431Z,12.84
2023-04-21T07:05:18.045Z,13.05
2023-04-21T07:08:04.778Z,13.27
2023-04-21T07:10:51.507Z,13.44
2023-04-21T07:13:38.060Z,13.63
2023-04-21T07:16:24.709Z,13.82
2023-04-21T07:19:11.598Z,14.05
2023-04-21T07:21:58.464Z,14.17
2023-04-21T07:24:44.916Z,14.33
2023-04-21T07:27:31.084Z,14.48
2023-04-21T07:30:18.263Z,14.66
2023-04-21T07:33:04.513Z,14.78
2023-04-21T07:35:50.986Z,14.88
2023-04-21T07:38:38.486Z,15.04
2023-04-21T07:41:25.191Z,15.18
2023-04-21T07:44:11.645Z,15.28
2023-04-21T07:46:58.576Z,15.44
2023-04-21T07:49:44.915Z,15.58
2023-04-21T07:52:31.289Z,15.75
2023-04-21T07:55:17.632Z,15.92
2023-04-21T07:58:05.234Z,16.05
2023-04-21T08:00:51.698Z,16.21
2023-04-21T08:03:38.001Z,16.34
2023-04-21T08:06:25.141Z,16.47
2023-04-21T08:09:12.142Z,16.57
2023-04-21T08:11:58.951Z,16.71
2023-04-21T08:14:45.876Z,16.77
2023-04-21T08:17:32.655Z,16.97
2023-04-21T08:20:19.195Z,17.12
2023-04-21T08:23:06.259Z,17.17
2023-04-21T08:25:53.208Z,17.25
2023-04-21T08:28:39.687Z,17.31
2023-04-21T08:31:26.934Z,17.46
2023-04-21T08:34:13.828Z,17.63
2023-04-21T08:36:59.972Z,17.80
2023-04-21T08:39:47.220Z,17.93
2023-04-21T08:42:34.937Z,17.95
2023-04-21T08:45:22.014Z,17.98
2023-04-21T08:48:14.091Z,17.99
2023-04-21T08:51:02.572Z,18.03
2023-04-21T08:53:49.119Z,18.07
2023-04-21T08:56:35.774Z,18.15
2023-04-21T08:59:22.518Z,18.17
2023-04-21T09:02:10.210Z,18.31
2023-04-21T09:04:57.161Z,18.40
2023-04-21T09:07:44.144Z,18.47
2023-04-21T09:10:30.915Z,18.59
2023-04-21T09:13:18.619Z,18.65
2023-04-21T09:16:15.342Z,18.75
2023-04-21T09:19:01.910Z,18.78
2023-04-21T09:21:48.460Z,18.84
2023-04-21T09:24:35.070Z,18.98
2023-04-21T09:27:21.666Z,18.98
2023-04-21T09:30:08.759Z,18.97
2023-04-21T09:32:58.962Z,18.93
2023-04-21T09:35:45.722Z,18.87
2023-04-21T09:38:32.763Z,18.94
2023-04-21T09:41:19.310Z,19.03
2023-04-21T09:44:05.719Z,19.07
2023-04-21T09:46:59.048Z,19.09
2023-04-21T09:49:51.169Z,19.16
2023-04-21T09:52:40.862Z,19.27
2023-04-21T09:55:31.069Z,19.38
2023-04-21T09:58:22.707Z,19.44
2023-04-21T10:01:10.237Z,19.48
2023-04-21T10:03:58.149Z,19.41
2023-04-21T10:06:46.501Z,19.44
2023-04-21T10:09:46.027Z,19.53
2023-04-21T10:12:33.898Z,19.58
2023-04-21T10:15:32.644Z,19.53
2023-04-21T10:18:23.420Z,19.48
2023-04-21T10:21:20.220Z,19.48
2023-04-21T10:24:07.041Z,19.62
2023-04-21T10:26:55.108Z,19.73
2023-04-21T10:29:55.565Z,19.64
2023-04-21T10:32:45.397Z,19.75
2023-04-21T10:35:58.340Z,19.96
2023-04-21T10:38:57.100Z,20.03
2023-04-21T10:41:44.336Z,19.97
2023-04-21T10:44:31.233Z,19.97
2023-04-21T10:47:29.610Z,20.06
2023-04-21T10:50:26.134Z,20.11
2023-04-21T10:53:13.049Z,20.16
2023-04-21T10:55:59.917Z,20.22
2023-04-21T10:58:47.685Z,20.18
2023-04-21T11:01:34.000Z,20.15
2023-04-21T11:04:23.011Z,20.07
2023-04-21T11:07:25.741Z,20.22
2023-04-21T11:10:12.386Z,20.33
2023-04-21T11:12:58.737Z,20.39
2023-04-21T11:16:08.321Z,20.39
2023-04-21T11:18:56.854Z,20.29
2023-04-21T11:21:43.511Z,20.18
2023-04-21T11:24:31.847Z,20.17
2023-04-21T11:27:18.258Z,20.14
2023-04-21T11:30:05.902Z,20.19
2023-04-21T11:32:56.128Z,20.40
2023-04-21T11:35:43.781Z,20.55
2023-04-21T11:38:41.112Z,20.59
2023-04-21T11:41:27.440Z,20.77
2023-04-21T11:44:30.119Z,20.98
2023-04-21T11:47:25.239Z,21.44
2023-04-21T11:50:12.138Z,21.86
2023-04-21T11:52:58.824Z,22.22
2023-04-21T11:55:48.542Z,22.62
2023-04-21T11:58:35.050Z,22.99
2023-04-21T12:01:22.614Z,23.27
2023-04-21T12:04:16.201Z,23.59
2023-04-21T12:07:03.255Z,23.96
2023-04-21T12:09:53.788Z,24.32
2023-04-21T12:12:43.941Z,24.76
2023-04-21T12:15:30.575Z,25.22
2023-04-21T12:18:16.783Z,25.60
2023-04-21T12:21:03.563Z,25.92
2023-04-21T12:23:50.031Z,26.30
2023-04-21T12:26:36.403Z,26.67
2023-04-21T12:29:22.656Z,27.15
2023-04-21T12:32:09.631Z,27.64
2023-04-21T12:34:56.239Z,28.09
2023-04-21T12:37:42.697Z,28.38
2023-04-21T12:40:29.205Z,28.70
2023-04-21T12:43:16.014Z,28.71
2023-04-21T12:46:02.823Z,28.70
2023-04-21T12:48:49.713Z,28.94
2023-04-21T12:51:35.974Z,29.12
2023-04-21T12:54:22.561Z,29.36
2023-04-21T12:57:09.151Z,29.64
2023-04-21T12:59:56.032Z,29.94
2023-04-21T13:02:43.152Z,30.34
2023-04-21T13:05:29.956Z,30.69
2023-04-21T13:08:16.660Z,30.93
2023-04-21T13:11:03.996Z,31.07
2023-04-21T13:13:50.365Z,31.14
2023-04-21T13:16:36.942Z,30.94
2023-04-21T13:19:23.524Z,31.21
2023-04-21T13:22:09.757Z,31.39
2023-04-21T13:24:56.398Z,31.59
2023-04-21T13:27:43.191Z,31.94
2023-04-21T13:30:29.599Z,32.15
2023-04-21T13:33:16.631Z,32.39
2023-04-21T13:36:03.876Z,32.85
2023-04-21T13:38:51.103Z,33.04
2023-04-21T13:41:37.978Z,33.17
2023-04-21T13:44:24.796Z,33.52
2023-04-21T13:47:11.220Z,33.82
2023-04-21T13:49:57.605Z,34.30
2023-04-21T13:52:44.585Z,34.64
2023-04-21T13:55:31.342Z,34.97
2023-04-21T13:58:17.904Z,35.02
2023-04-21T14:01:04.442Z,35.13
2023-04-21T14:03:51.545Z,35.08
2023-04-21T14:06:38.215Z,35.29
2023-04-21T14:09:24.423Z,35.60
2023-04-21T14:12:11.357Z,35.93
2023-04-21T14:14:57.850Z,35.94
2023-04-21T14:17:44.530Z,36.18
2023-04-21T14:20:31.246Z,36.44
2023-04-21T14:23:17.417Z,36.68
2023-04-21T14:26:05.137Z,36.92
2023-04-21T14:28:51.830Z,36.94
2023-04-21T14:31:37.895Z,36.97
2023-04-21T14:34:26.082Z,37.22
2023-04-21T14:37:12.745Z,37.13
2023-04-21T14:39:59.108Z,36.82
2023-04-21T14:42:45.834Z,36.90
2023-04-21T14:45:32.430Z,37.31
2023-04-21T14:48:19.137Z,37.92
2023-04-21T14:51:09.323Z,38.16
2023-04-21T14:53:55.948Z,38.15
2023-04-21T14:56:42.286Z,38.28
2023-04-21T14:59:28.627Z,38.05
2023-04-21T15:02:15.589Z,37.74
2023-04-21T15:05:03.648Z,37.57
2023-04-21T15:07:50.031Z,37.01
2023-04-21T15:10:36.599Z,36.92
2023-04-21T15:13:23.415Z,36.17
2023-04-21T15:16:09.666Z,35.42
2023-04-21T15:18:56.505Z,35.46
2023-04-21T15:21:42.704Z,35.67
2023-04-21T15:24:29.176Z,35.89
2023-04-21T15:27:16.398Z,35.95
2023-04-21T15:30:04.554Z,35.61
2023-04-21T15:32:50.719Z,35.01
2023-04-21T15:35:37.557Z,34.24
2023-04-21T15:38:24.228Z,32.93
2023-04-21T15:41:10.715Z,31.69
2023-04-21T15:44:01.265Z,30.49
2023-04-21T15:46:48.078Z,29.21
2023-04-21T15:49:34.596Z,28.26
2023-04-21T15:52:21.596Z,27.63
2023-04-21T15:55:10.359Z,26.86
2023-04-21T15:57:56.751Z,26.23
2023-04-21T16:00:43.308Z,25.66
2023-04-21T16:03:29.799Z,25.01
2023-04-21T16:06:17.048Z,24.43
2023-04-21T16:09:03.841Z,23.95
2023-04-21T16:11:51.650Z,23.58
2023-04-21T16:14:53.515Z,23.34
2023-04-21T16:17:42.301Z,23.11
2023-04-21T16:20:29.243Z,22.92
2023-04-21T16:23:16.164Z,22.84
2023-04-21T16:26:02.753Z,22.84
2023-04-21T16:28:49.002Z,22.92
2023-04-21T16:31:35.352Z,22.99
2023-04-21T16:34:21.889Z,23.01
2023-04-21T16:37:08.496Z,23.18
2023-04-21T16:39:55.343Z,24.00
2023-04-21T16:42:41.491Z,23.98
2023-04-21T16:45:29.294Z,23.58
2023-04-21T16:48:15.986Z,23.22
2023-04-21T16:51:02.732Z,22.89
2023-04-21T16:53:49.471Z,22.61
2023-04-21T16:56:36.122Z,22.51
2023-04-21T16:59:24.637Z,22.62
2023-04-21T17:02:11.172Z,22.86
2023-04-21T17:04:58.002Z,22.98
2023-04-21T17:07:45.333Z,22.88
2023-04-21T17:10:32.122Z,22.78
2023-04-21T17:13:18.485Z,22.68
2023-04-21T17:16:08.727Z,22.51
2023-04-21T17:18:56.425Z,22.17
2023-04-21T17:21:42.962Z,21.82
2023-04-21T17:24:35.402Z,21.45
2023-04-21T17:27:27.725Z,20.92
2023-04-21T17:30:15.775Z,20.29
2023-04-21T17:33:16.220Z,19.73
2023-04-21T17:36:05.112Z,19.15
2023-04-21T17:38:51.677Z,18.73
2023-04-21T17:41:38.248Z,18.41
2023-04-21T17:44:25.232Z,18.07
2023-04-21T17:47:12.859Z,17.72
2023-04-21T17:49:59.647Z,17.45
2023-04-21T17:52:46.236Z,17.17
2023-04-21T17:55:33.012Z,16.91
2023-04-21T17:58:20.317Z,16.67
2023-04-21T18:01:07.868Z,16.44
2023-04-21T18:03:57.788Z,16.20
2023-04-21T18:06:46.719Z,15.98
2023-04-21T18:09:33.113Z,15.77
2023-04-21T18:12:20.101Z,15.59
2023-04-21T18:15:07.390Z,15.40
2023-04-21T18:17:54.346Z,15.22
2023-04-21T18:20:40.857Z,15.07
2023-04-21T18:23:27.482Z,14.91
2023-04-21T18:26:13.767Z,14.75
2023-04-21T18:29:00.585Z,14.61
2023-04-21T18:31:47.451Z,14.46
2023-04-21T18:34:33.871Z,14.26
2023-04-21T18:37:20.559Z,14.17
2023-04-21T18:40:07.841Z,14.04
2023-04-21T18:42:54.514Z,13.91
2023-04-21T18:45:41.443Z,13.80
2023-04-21T18:48:27.947Z,13.69
2023-04-21T18:51:15.200Z,13.57
2023-04-21T18:54:07.330Z,13.43
2023-04-21T18:56:58.426Z,13.30
2023-04-21T18:59:45.568Z,13.22
2023-04-21T19:02:32.237Z,13.14
2023-04-21T19:05:18.979Z,13.06
2023-04-21T19:08:05.906Z,13.01
2023-04-21T19:10:53.361Z,12.92
2023-04-21T19:13:39.977Z,12.84
2023-04-21T19:16:28.229Z,12.75
2023-04-21T19:19:16.602Z,12.67
2023-04-21T19:22:04.343Z,12.58
2023-04-21T19:24:51.711Z,12.47
2023-04-21T19:27:38.868Z,12.42
2023-04-21T19:30:26.447Z,12.33
2023-04-21T19:33:14.370Z,12.31
2023-04-21T19:36:02.978Z,12.22
2023-04-21T19:38:49.777Z,12.16
2023-04-21T19:41:36.652Z,12.06
2023-04-21T19:44:23.548Z,11.98
2023-04-21T19:47:10.788Z,11.92
2023-04-21T19:49:57.474Z,11.85
2023-04-21T19:52:44.084Z,11.77
2023-04-21T19:55:30.948Z,11.68
2023-04-21T19:58:32.020Z,11.60
2023-04-21T20:01:25.391Z,11.51
2023-04-21T20:04:12.540Z,11.43
2023-04-21T20:06:59.016Z,11.36
2023-04-21T20:09:45.846Z,11.23
2023-04-21T20:12:33.859Z,11.23
2023-04-21T20:15:21.710Z,11.19
2023-04-21T20:18:10.221Z,11.14
2023-04-21T20:20:57.299Z,11.09
2023-04-21T20:23:43.950Z,11.05
2023-04-21T20:26:30.938Z,11.00
2023-04-21T20:29:17.559Z,10.94
2023-04-21T20:32:03.935Z,10.88
2023-04-21T20:34:53.309Z,10.80
2023-04-21T20:37:40.634Z,10.77
2023-04-21T20:40:27.564Z,10.72
2023-04-21T20:43:15.151Z,10.65
2023-04-21T20:46:03.446Z,10.60
2023-04-21T20:48:50.810Z,10.55
2023-04-21T20:51:42.034Z,10.48
2023-04-21T20:54:28.532Z,10.41
2023-04-21T20:57:15.831Z,10.36
2023-04-21T21:00:07.092Z,10.31
2023-04-21T21:02:54.265Z,10.26
2023-04-21T21:05:43.413Z,10.19
2023-04-21T21:08:34.620Z,10.16
2023-04-21T21:11:21.697Z,10.08
2023-04-21T21:14:08.165Z,10.08
2023-04-21T21:16:56.515Z,10.04
2023-04-21T21:19:45.544Z,9.98
2023-04-21T21:22:32.575Z,9.94
2023-04-21T21:25:19.282Z,9.88
2023-04-21T21:28:07.429Z,9.81
2023-04-21T21:30:54.543Z,9.77
2023-04-21T21:33:42.465Z,9.69
2023-04-21T21:39:51.310Z,9.60
2023-04-21T21:42:41.992Z,9.55
2023-04-21T21:45:28.933Z,9.48
2023-04-21T21:48:16.962Z,9.41
2023-04-21T21:51:05.446Z,9.35
2023-04-21T21:53:52.011Z,9.30
2023-04-21T21:56:38.918Z,9.26
2023-04-21T21:59:26.289Z,9.22
2023-04-21T22:02:12.906Z,9.19
2023-04-21T22:05:01.254Z,9.15
2023-04-21T22:07:49.049Z,9.11
2023-04-21T22:10:36.152Z,9.06
2023-04-21T22:13:22.911Z,9.03
2023-04-21T22:16:09.743Z,8.98
2023-04-21T22:19:01.661Z,8.94
2023-04-21T22:21:48.741Z,8.85
2023-04-21T22:24:35.818Z,8.84
2023-04-21T22:27:22.550Z,8.80
2023-04-21T22:30:09.748Z,8.74
2023-04-21T22:32:57.133Z,8.68
2023-04-21T22:35:43.953Z,8.62
2023-04-21T22:38:30.926Z,8.57
2023-04-21T22:41:20.000Z,8.51
2023-04-21T22:44:07.111Z,8.46
2023-04-21T22:46:54.896Z,8.40
2023-04-21T22:49:41.651Z,8.34
2023-04-21T22:52:28.332Z,8.28
2023-04-21T22:55:15.163Z,8.22
2023-04-21T22:58:01.763Z,8.16
2023-04-21T23:00:48.157Z,8.09
2023-04-21T23:03:34.732Z,8.03
2023-04-21T23:06:21.696Z,7.97
2023-04-21T23:09:08.474Z,7.92
2023-04-21T23:11:55.417Z,7.86
2023-04-21T23:14:44.597Z,7.80
2023-04-21T23:17:31.921Z,7.71
2023-04-21T23:20:18.553Z,7.68
2023-04-21T23:23:05.234Z,7.61
2023-04-21T23:25:52.425Z,7.55
2023-04-21T23:28:39.142Z,7.47
2023-04-21T23:31:26.275Z,7.35
2023-04-21T23:34:12.786Z,7.33
2023-04-21T23:36:59.723Z,7.26
2023-04-21T23:39:47.596Z,7.21
2023-04-21T23:42:36.647Z,7.16
2023-04-21T23:45:23.814Z,7.14
2023-04-21T23:48:12.112Z,7.11
2023-04-21T23:50:58.950Z,7.09
2023-04-21T23:53:45.812Z,7.08
2023-04-21T23:56:32.954Z,7.09
2023-04-21T23:59:19.838Z,7.07
